Time;durP1;ratioP1;P1;durP2;ratioP2;P2;SDS_P1;SDS_P2;PMS_P1;PMS_P2;Temp;Humidity;BMP_temperature;BMP_pressure;BME280_temperature;BME280_humidity;BME280_pressure;Samples;Min_cycle;Max_cycle;Signal;HPM_P1;HPM_P2
2022/09/15 00:04:33;;;;;;;1.92;0.20;;;18.70;62.50;20.80;93227.00;;;;10516446;27;45189;-60
2022/09/15 00:09:55;;;;;;;0.38;0.10;;;18.60;62.40;20.80;93234.00;;;;10540092;27;45284;-61
2022/09/15 00:15:16;;;;;;;0.65;0.20;;;18.60;62.50;20.70;93208.00;;;;10522762;27;45281;-60
2022/09/15 00:20:41;;;;;;;0.30;0.20;;;18.60;62.50;20.80;93207.00;;;;10527669;27;45424;-62
2022/09/15 00:26:08;;;;;;;0.32;0.20;;;18.60;62.50;20.70;93202.00;;;;10532658;27;45409;-60
2022/09/15 00:31:31;;;;;;;0.68;0.20;;;18.70;62.40;20.80;93200.00;;;;10557687;27;45597;-60
2022/09/15 00:36:51;;;;;;;0.90;0.20;;;18.60;62.30;20.80;93184.00;;;;10517382;27;45293;-60
2022/09/15 00:42:16;;;;;;;0.57;0.10;;;18.70;62.20;20.80;93172.00;;;;10516767;27;45723;-62
2022/09/15 00:47:39;;;;;;;1.02;0.20;;;18.60;62.20;20.80;93177.00;;;;10556009;27;45274;-62
2022/09/15 00:53:03;;;;;;;0.10;0.10;;;18.60;62.10;20.70;93174.00;;;;10556926;27;45298;-62
2022/09/15 00:58:30;;;;;;;0.40;0.10;;;18.60;62.20;20.70;93169.00;;;;10553307;27;46003;-61
2022/09/15 01:03:51;;;;;;;0.47;0.20;;;18.60;62.20;20.70;93176.00;;;;10508611;27;44895;-61
2022/09/15 01:09:17;;;;;;;1.10;0.30;;;18.60;62.10;20.70;93183.00;;;;10534837;27;45277;-61
2022/09/15 01:14:39;;;;;;;0.50;0.20;;;18.60;62.10;20.70;93170.00;;;;10514646;27;45216;-63
2022/09/15 01:21:06;;;;;;;0.32;0.20;;;18.60;62.00;20.70;93175.00;;;;10513628;27;45168;-61
2022/09/15 01:26:56;;;;;;;0.35;0.20;;;18.60;62.00;20.70;93168.00;;;;10528839;27;45571;-61
2022/09/15 01:38:08;;;;;;;;;;;18.60;61.70;20.70;93168.00;;;;10513301;28;45173;-61
2022/09/15 01:43:30;;;;;;;0.70;0.30;;;18.60;61.80;20.70;93169.00;;;;10513616;27;45427;-61
2022/09/15 01:48:55;;;;;;;0.20;0.20;;;18.60;61.70;20.70;93154.00;;;;10533150;27;45213;-60
2022/09/15 01:54:19;;;;;;;0.73;0.25;;;18.70;61.60;20.70;93151.00;;;;10526734;27;45358;-60
2022/09/15 01:59:40;;;;;;;0.20;0.20;;;18.70;61.50;20.70;93151.00;;;;10523625;27;45877;-61
2022/09/15 02:05:08;;;;;;;0.30;0.20;;;18.60;61.50;20.70;93155.00;;;;10512317;27;45121;-60
2022/09/15 02:10:36;;;;;;;1.25;0.20;;;18.60;61.50;20.70;93155.00;;;;10526099;27;45226;-61
2022/09/15 02:16:01;;;;;;;0.47;0.25;;;18.60;61.50;20.70;93165.00;;;;10511728;27;45237;-61
2022/09/15 02:21:28;;;;;;;1.33;0.30;;;18.60;61.40;20.70;93164.00;;;;10512056;27;45141;-61
2022/09/15 02:26:51;;;;;;;1.20;0.30;;;18.60;61.40;20.70;93157.00;;;;10535657;27;45877;-61
2022/09/15 02:32:16;;;;;;;0.57;0.20;;;18.60;61.30;20.70;93145.00;;;;10552177;27;45739;-61
2022/09/15 02:37:38;;;;;;;0.40;0.30;;;18.60;61.50;20.70;93161.00;;;;10512004;27;45257;-60
2022/09/15 02:43:01;;;;;;;0.32;0.20;;;18.60;61.50;20.70;93154.00;;;;10511363;27;45281;-61
2022/09/15 02:48:24;;;;;;;0.30;0.22;;;18.50;61.50;20.70;93136.00;;;;10536700;27;45228;-61
2022/09/15 02:53:46;;;;;;;0.60;0.30;;;18.60;61.50;20.70;93152.00;;;;10542025;27;45266;-62
2022/09/15 02:59:07;;;;;;;0.43;0.17;;;18.60;61.50;20.70;93154.00;;;;10545295;27;45214;-61
2022/09/15 03:04:27;;;;;;;0.25;0.20;;;18.60;61.60;20.70;93147.00;;;;10524373;27;45148;-61
2022/09/15 03:09:49;;;;;;;0.28;0.10;;;18.60;61.60;20.70;93144.00;;;;10540103;27;45822;-62
2022/09/15 03:15:13;;;;;;;0.40;0.30;;;18.60;61.70;20.70;93155.00;;;;10552679;27;45145;-60
2022/09/15 03:20:33;;;;;;;0.30;0.20;;;18.50;61.60;20.70;93151.00;;;;10552649;27;45550;-61
2022/09/15 03:25:57;;;;;;;0.30;0.20;;;18.50;61.50;20.70;93141.00;;;;10531605;27;45262;-61
2022/09/15 03:31:18;;;;;;;0.38;0.20;;;18.60;62.30;20.70;93142.00;;;;10521745;27;45254;-61
2022/09/15 03:36:40;;;;;;;0.68;0.20;;;18.60;61.50;20.70;93141.00;;;;10522387;27;45181;-61
2022/09/15 03:42:01;;;;;;;0.32;0.20;;;18.60;61.40;20.70;93145.00;;;;10531850;27;45771;-61
2022/09/15 03:47:22;;;;;;;0.40;0.20;;;18.60;61.40;20.70;93133.00;;;;10537952;27;45127;-61
2022/09/15 03:52:43;;;;;;;0.10;0.10;;;18.60;61.50;20.70;93142.00;;;;10517624;27;45720;-60
2022/09/15 03:58:05;;;;;;;1.15;0.20;;;18.60;61.50;20.70;93144.00;;;;10528360;27;45401;-62
2022/09/15 04:03:25;;;;;;;0.30;0.20;;;18.60;61.40;20.70;93134.00;;;;10517322;27;45192;-60
2022/09/15 04:08:46;;;;;;;0.25;0.10;;;18.60;61.40;20.60;93157.00;;;;10516852;27;45553;-60
2022/09/15 04:14:08;;;;;;;0.10;0.10;;;18.50;61.40;20.60;93133.00;;;;10516537;27;45766;-61
2022/09/15 04:19:29;;;;;;;0.25;0.20;;;18.50;61.40;20.70;93141.00;;;;10516376;27;45228;-61
2022/09/15 04:24:50;;;;;;;0.08;0.08;;;18.50;61.40;20.60;93131.00;;;;10552034;27;45746;-61
2022/09/15 04:30:12;;;;;;;0.38;0.20;;;18.50;61.40;20.60;93108.00;;;;10557800;27;45226;-60
2022/09/15 04:35:33;;;;;;;0.80;0.20;;;18.50;61.50;20.60;93113.00;;;;10528712;27;45160;-61
2022/09/15 04:40:54;;;;;;;0.38;0.13;;;18.50;61.40;20.60;93118.00;;;;10515123;27;45241;-61
2022/09/15 04:46:17;;;;;;;0.10;0.10;;;18.50;61.40;20.60;93103.00;;;;10530154;27;45176;-61
2022/09/15 04:51:38;;;;;;;0.88;0.30;;;18.50;61.40;20.60;93106.00;;;;10515588;27;45246;-63
2022/09/15 04:56:59;;;;;;;1.08;0.10;;;18.50;61.40;20.60;93107.00;;;;10517001;27;45203;-62
2022/09/15 05:02:21;;;;;;;0.50;0.20;;;18.50;61.40;20.60;93124.00;;;;10521994;27;45152;-61
2022/09/15 05:07:41;;;;;;;0.77;0.15;;;18.50;61.40;20.60;93119.00;;;;10528492;27;45395;-61
2022/09/15 05:13:02;;;;;;;0.40;0.20;;;18.60;61.20;20.70;93107.00;;;;10526087;27;45190;-61
2022/09/15 05:18:24;;;;;;;0.10;0.10;;;18.50;61.20;20.70;93123.00;;;;10521419;27;45484;-62
2022/09/15 05:23:46;;;;;;;0.10;0.10;;;18.50;61.00;20.70;93117.00;;;;10538233;27;45221;-60
2022/09/15 05:29:06;;;;;;;0.80;0.32;;;18.60;61.10;20.60;93107.00;;;;10513088;27;45676;-61
2022/09/15 05:34:28;;;;;;;0.40;0.32;;;18.50;60.90;20.60;93127.00;;;;10525672;27;45591;-62
2022/09/15 05:39:49;;;;;;;0.25;0.17;;;18.60;61.00;20.60;93128.00;;;;10514240;27;45270;-61
2022/09/15 05:45:10;;;;;;;0.40;0.30;;;18.60;61.00;20.60;93117.00;;;;10520251;27;45472;-61
2022/09/15 05:50:32;;;;;;;0.25;0.13;;;18.50;60.90;20.60;93133.00;;;;10523835;27;45838;-61
2022/09/15 05:55:55;;;;;;;0.35;0.20;;;18.50;60.90;20.60;93126.00;;;;10514600;27;45568;-60
2022/09/15 06:01:19;;;;;;;0.75;0.30;;;18.50;60.90;20.60;93122.00;;;;10536255;27;45221;-61
2022/09/15 06:06:41;;;;;;;0.17;0.13;;;18.50;60.90;20.60;93139.00;;;;10519671;27;45418;-60
2022/09/15 06:12:02;;;;;;;0.55;0.20;;;18.50;60.90;20.60;93129.00;;;;10533131;27;45199;-61
2022/09/15 06:17:23;;;;;;;0.73;0.22;;;18.50;60.90;20.60;93151.00;;;;10510467;27;45406;-60
2022/09/15 06:22:45;;;;;;;0.93;0.15;;;18.50;61.00;20.60;93137.00;;;;10537452;27;45901;-61
2022/09/15 06:28:06;;;;;;;1.48;0.25;;;18.50;61.20;20.60;93164.00;;;;10530718;27;45841;-61
2022/09/15 06:33:26;;;;;;;0.32;0.22;;;18.50;61.20;20.60;93159.00;;;;10533697;27;45278;-61
2022/09/15 06:38:50;;;;;;;0.88;0.10;;;18.50;61.50;20.60;93163.00;;;;10513712;27;45265;-60
2022/09/15 06:44:11;;;;;;;1.13;0.30;;;18.50;61.50;20.60;93176.00;;;;10513781;28;45405;-60
2022/09/15 06:49:31;;;;;;;1.55;0.30;;;18.50;61.60;20.60;93175.00;;;;10510892;27;45875;-61
2022/09/15 06:54:53;;;;;;;2.08;0.30;;;18.50;61.50;20.60;93184.00;;;;10525237;27;45260;-61
2022/09/15 07:00:15;;;;;;;1.58;0.40;;;18.50;61.80;20.60;93194.00;;;;10525808;27;45210;-60
2022/09/15 07:05:35;;;;;;;4.68;0.30;;;18.50;61.80;20.60;93197.00;;;;10526449;27;45255;-61
2022/09/15 07:10:57;;;;;;;0.77;0.30;;;18.50;61.70;20.70;93218.00;;;;10523923;27;45254;-61
2022/09/15 07:16:20;;;;;;;0.38;0.10;;;18.50;61.70;20.60;93195.00;;;;10529051;27;45937;-60
2022/09/15 07:21:41;;;;;;;1.50;0.32;;;18.60;61.90;20.70;93211.00;;;;10508365;28;45699;-61
2022/09/15 07:27:02;;;;;;;1.33;0.30;;;18.50;61.70;20.70;93218.00;;;;10534326;27;45447;-61
2022/09/15 07:32:23;;;;;;;2.78;0.25;;;18.60;61.90;20.70;93209.00;;;;10530422;27;45261;-61
2022/09/15 07:37:44;;;;;;;2.15;0.35;;;18.50;61.80;20.60;93215.00;;;;10528983;27;45061;-61
2022/09/15 07:43:06;;;;;;;1.30;0.20;;;18.50;61.90;20.70;93211.00;;;;10530306;27;45135;-61
2022/09/15 07:48:27;;;;;;;0.68;0.40;;;18.50;61.90;20.70;93231.00;;;;10525014;27;45435;-60
2022/09/15 07:53:49;;;;;;;0.55;0.30;;;18.50;62.00;20.70;93234.00;;;;10530216;27;45294;-61
2022/09/15 07:59:11;;;;;;;0.35;0.20;;;18.50;61.80;20.70;93242.00;;;;10526639;27;45291;-60
2022/09/15 08:04:31;;;;;;;1.35;0.20;;;18.50;61.90;20.70;93255.00;;;;10519322;27;45265;-61
2022/09/15 08:09:52;;;;;;;1.58;0.30;;;18.50;61.90;20.70;93252.00;;;;10539806;27;45723;-61
2022/09/15 08:15:16;;;;;;;2.45;0.30;;;18.50;62.00;20.60;93250.00;;;;10519226;27;45148;-61
2022/09/15 08:20:39;;;;;;;0.20;0.20;;;18.50;62.00;20.70;93262.00;;;;10515390;27;45761;-61
2022/09/15 08:26:00;;;;;;;1.10;0.40;;;18.50;62.20;20.70;93252.00;;;;10533297;27;45197;-60
2022/09/15 08:31:23;;;;;;;2.20;0.30;;;18.50;62.20;20.60;93242.00;;;;10519730;27;45341;-60
2022/09/15 08:36:44;;;;;;;0.65;0.22;;;18.50;62.20;20.60;93262.00;;;;10520268;27;45167;-61
2022/09/15 08:42:06;;;;;;;0.50;0.13;;;18.50;62.20;20.60;93261.00;;;;10515718;27;45700;-60
2022/09/15 08:47:32;;;;;;;2.65;0.30;;;18.50;62.20;20.70;93275.00;;;;10514812;27;45241;-61
2022/09/15 08:52:59;;;;;;;0.88;0.30;;;18.50;62.30;20.60;93282.00;;;;10516246;27;45405;-61
2022/09/15 08:58:22;;;;;;;1.27;0.20;;;18.50;62.20;20.60;93291.00;;;;10542728;27;45221;-60
2022/09/15 09:04:09;;;;;;;0.22;0.08;;;18.50;62.30;20.60;93286.00;;;;10516445;27;45276;-60
2022/09/15 09:09:34;;;;;;;;;;;18.50;62.20;20.60;93275.00;;;;10515104;27;45216;-61
2022/09/15 09:15:11;;;;;;;0.65;0.30;;;18.50;62.20;20.60;93277.00;;;;10518264;27;45687;-61
2022/09/15 09:20:49;;;;;;;0.85;0.20;;;18.50;62.30;20.60;93299.00;;;;10555161;27;45153;-61
2022/09/15 09:26:13;;;;;;;0.20;0.10;;;18.50;62.40;20.60;93287.00;;;;10542679;27;45218;-61
2022/09/15 09:31:35;;;;;;;1.27;0.20;;;18.50;62.30;20.60;93276.00;;;;10519955;27;45260;-61
2022/09/15 09:37:01;;;;;;;0.38;0.20;;;18.50;62.30;20.60;93289.00;;;;10516192;27;45290;-61
2022/09/15 09:42:35;;;;;;;0.32;0.10;;;18.50;62.30;20.60;93271.00;;;;10545762;27;45183;-61
2022/09/15 09:48:00;;;;;;;0.77;0.30;;;18.50;62.30;20.60;93270.00;;;;10555988;27;45744;-61
2022/09/15 09:53:29;;;;;;;0.93;0.22;;;18.50;62.40;20.60;93253.00;;;;10555080;27;46280;-61
2022/09/15 09:58:51;;;;;;;1.88;0.30;;;18.50;62.40;20.60;93250.00;;;;10551063;27;45306;-61
2022/09/15 10:04:17;;;;;;;0.40;0.10;;;18.50;62.30;20.60;93246.00;;;;10513337;27;45204;-60
2022/09/15 10:09:49;;;;;;;0.30;0.10;;;18.50;62.30;20.60;93255.00;;;;10512615;27;45875;-60
2022/09/15 10:15:25;;;;;;;0.95;0.30;;;18.50;62.40;20.60;93238.00;;;;10511993;27;45170;-60
2022/09/15 10:20:50;;;;;;;0.25;0.10;;;18.50;62.40;20.60;93253.00;;;;10511414;27;45831;-61
2022/09/15 10:26:31;;;;;;;0.77;0.30;;;18.50;62.40;20.60;93243.00;;;;10528701;27;45263;-61
2022/09/15 10:31:52;;;;;;;0.47;0.20;;;18.60;62.50;20.60;93241.00;;;;10520191;27;45786;-61
2022/09/15 10:37:23;;;;;;;0.88;0.22;;;18.50;62.30;20.60;93243.00;;;;10511291;28;45195;-61
2022/09/15 10:42:50;;;;;;;0.50;0.20;;;18.50;62.40;20.60;93244.00;;;;10512803;28;45403;-61
2022/09/15 10:48:34;;;;;;;0.85;0.28;;;18.50;62.40;20.60;93241.00;;;;10511468;28;45680;-61
2022/09/15 10:54:34;;;;;;;0.63;0.30;;;18.50;62.40;20.60;93245.00;;;;10511350;27;45210;-61
2022/09/15 11:00:03;;;;;;;0.73;0.20;;;18.50;62.40;20.60;93251.00;;;;10524010;27;45231;-61
2022/09/15 11:05:33;;;;;;;0.65;0.30;;;18.50;62.40;20.60;93247.00;;;;10529927;27;45775;-61
2022/09/15 11:11:04;;;;;;;0.93;0.22;;;18.50;62.50;20.60;93239.00;;;;10511529;27;45842;-60
2022/09/15 11:16:39;;;;;;;0.93;0.40;;;18.50;62.40;20.60;93244.00;;;;10540553;27;45173;-61
2022/09/15 11:22:04;;;;;;;0.28;0.10;;;18.50;62.50;20.60;93244.00;;;;10552092;27;45716;-61
2022/09/15 11:27:30;;;;;;;0.57;0.22;;;18.50;62.50;20.60;93254.00;;;;10552152;27;45197;-61
2022/09/15 11:32:58;;;;;;;0.10;0.10;;;18.50;62.40;20.60;93252.00;;;;10553136;27;45278;-60
2022/09/15 11:38:34;;;;;;;0.70;0.13;;;18.50;62.50;20.60;93250.00;;;;10514967;27;45282;-61
2022/09/15 11:44:15;;;;;;;0.52;0.20;;;18.50;62.60;20.60;93228.00;;;;10541720;27;45218;-61
2022/09/15 11:49:44;;;;;;;1.33;0.20;;;18.50;62.60;20.60;93245.00;;;;10559421;27;45217;-61
2022/09/15 11:55:18;;;;;;;1.23;0.15;;;18.50;62.60;20.60;93239.00;;;;10559903;27;45457;-61
2022/09/15 12:00:49;;;;;;;0.20;0.20;;;18.50;62.70;20.60;93250.00;;;;10538598;27;45250;-61
2022/09/15 12:06:17;;;;;;;0.85;0.20;;;18.50;62.60;20.60;93249.00;;;;10528281;27;45305;-61
2022/09/15 12:11:45;;;;;;;0.40;0.20;;;18.50;62.60;20.60;93251.00;;;;10517622;27;45491;-60
2022/09/15 12:17:08;;;;;;;0.40;0.30;;;18.50;62.60;20.60;93255.00;;;;10516083;27;45719;-60
2022/09/15 12:22:38;;;;;;;0.43;0.20;;;18.50;62.80;20.60;93244.00;;;;10515999;27;45821;-61
2022/09/15 12:28:38;;;;;;;1.20;0.20;;;18.50;62.70;20.60;93237.00;;;;10544355;27;45303;-61
2022/09/15 12:34:00;;;;;;;0.30;0.25;;;18.50;62.80;20.60;93254.00;;;;10529997;27;45171;-61
2022/09/15 12:39:30;;;;;;;0.98;0.20;;;18.50;62.80;20.60;93252.00;;;;10515204;27;45247;-60
2022/09/15 12:44:56;;;;;;;0.80;0.20;;;18.50;62.90;20.60;93245.00;;;;10515188;27;45750;-60
2022/09/15 12:50:27;;;;;;;0.53;0.23;;;18.50;62.90;20.60;93248.00;;;;10545124;27;45177;-60
2022/09/15 12:55:55;;;;;;;0.20;0.10;;;18.50;62.80;20.60;93249.00;;;;10556283;27;45236;-61
2022/09/15 13:01:46;;;;;;;;;;;18.50;62.80;20.60;93260.00;;;;10531998;27;45257;-60
2022/09/15 13:07:36;;;;;;;0.38;0.17;;;18.50;62.80;20.60;93237.00;;;;10531566;27;45125;-61
2022/09/15 13:13:14;;;;;;;0.50;0.20;;;18.50;62.90;20.60;93239.00;;;;10543554;27;45212;-61
2022/09/15 13:18:34;;;;;;;0.95;0.17;;;18.50;62.80;20.60;93271.00;;;;10520369;27;45230;-61
2022/09/15 13:23:56;;;;;;;0.95;0.50;;;18.50;62.90;20.60;93252.00;;;;10526704;27;45217;-61
2022/09/15 13:29:19;;;;;;;0.30;0.20;;;18.50;62.80;20.60;93249.00;;;;10513303;28;45770;-61
2022/09/15 13:35:07;;;;;;;0.70;0.22;;;18.50;62.90;20.60;93254.00;;;;10526416;27;45878;-61
2022/09/15 13:41:01;;;;;;;0.73;0.30;;;18.50;62.90;20.60;93251.00;;;;10516045;27;45386;-61
2022/09/15 13:46:40;;;;;;;0.20;0.10;;;18.50;62.90;20.60;93246.00;;;;10524113;27;45261;-61
2022/09/15 13:52:07;;;;;;;0.52;0.20;;;18.50;62.90;20.60;93250.00;;;;10543283;27;45199;-61
2022/09/15 13:57:28;;;;;;;;;;;18.50;62.90;20.60;93242.00;;;;10554967;27;45240;-61
2022/09/15 14:02:53;;;;;;;0.30;0.15;;;18.50;62.90;20.60;93240.00;;;;10517073;27;45831;-61
2022/09/15 14:08:17;;;;;;;0.28;0.20;;;18.50;63.00;20.60;93232.00;;;;10542848;27;45182;-61
2022/09/15 14:13:43;;;;;;;0.20;0.10;;;18.50;63.00;20.60;93220.00;;;;10554947;27;45696;-60
2022/09/15 14:19:33;;;;;;;0.93;0.33;;;18.50;63.00;20.60;93226.00;;;;10553682;27;45739;-61
2022/09/15 14:24:54;;;;;;;0.63;0.20;;;18.50;63.10;20.60;93227.00;;;;10553560;27;45204;-61
2022/09/15 14:30:21;;;;;;;0.40;0.20;;;18.50;63.00;20.60;93200.00;;;;10516921;27;45809;-61
2022/09/15 14:35:45;;;;;;;1.52;0.45;;;18.50;62.90;20.60;93211.00;;;;10523618;27;46237;-61
2022/09/15 14:41:06;;;;;;;1.20;0.22;;;18.50;63.10;20.60;93199.00;;;;10518058;27;45699;-61
2022/09/15 14:46:36;;;;;;;0.98;0.30;;;18.50;63.20;20.60;93193.00;;;;10527478;27;45259;-61
2022/09/15 14:52:01;;;;;;;0.93;0.30;;;18.50;63.20;20.60;93201.00;;;;10514660;27;45865;-61
2022/09/15 14:57:24;;;;;;;0.40;0.22;;;18.50;63.30;20.60;93210.00;;;;10534296;27;45237;-61
2022/09/15 15:03:03;;;;;;;0.63;0.30;;;18.50;63.40;20.60;93218.00;;;;10515374;27;45427;-61
2022/09/15 15:08:35;;;;;;;0.60;0.17;;;18.50;63.40;20.60;93226.00;;;;10510575;27;45254;-61
2022/09/15 15:13:57;;;;;;;0.60;0.30;;;18.50;63.40;20.60;93224.00;;;;10509403;27;45239;-61
2022/09/15 15:19:35;;;;;;;2.13;0.40;;;18.50;63.30;20.60;93232.00;;;;10518360;27;45301;-61
2022/09/15 15:24:57;;;;;;;2.15;0.57;;;18.50;63.40;20.60;93242.00;;;;10542549;27;45081;-61
2022/09/15 15:30:44;;;;;;;0.22;0.20;;;18.50;63.20;20.60;93228.00;;;;10560075;27;45220;-61
2022/09/15 15:36:07;;;;;;;0.15;0.15;;;18.50;63.20;20.60;93253.00;;;;10517907;27;45184;-61
2022/09/15 15:41:39;;;;;;;0.43;0.30;;;18.50;63.20;20.60;93257.00;;;;10518152;27;45326;-61
2022/09/15 15:47:01;;;;;;;0.93;0.25;;;18.50;63.20;20.60;93272.00;;;;10517132;27;45198;-61
2022/09/15 15:52:22;;;;;;;0.45;0.22;;;18.50;63.30;20.70;93276.00;;;;10517297;27;45257;-62
2022/09/15 15:57:47;;;;;;;1.55;0.20;;;18.50;63.20;20.60;93264.00;;;;10521837;27;45137;-61
2022/09/15 16:03:08;;;;;;;0.40;0.22;;;18.50;63.20;20.60;93270.00;;;;10515602;27;45153;-61
2022/09/15 16:08:31;;;;;;;0.40;0.20;;;18.50;63.20;20.60;93280.00;;;;10516579;27;45260;-61
2022/09/15 16:13:54;;;;;;;1.60;0.40;;;18.50;63.20;20.60;93281.00;;;;10516612;27;45696;-67
2022/09/15 16:19:14;;;;;;;1.10;0.30;;;18.50;63.30;20.70;93276.00;;;;10527076;27;45332;-60
2022/09/15 16:24:35;;;;;;;0.77;0.30;;;18.50;63.50;20.70;93282.00;;;;10533748;27;45163;-62
2022/09/15 16:29:56;;;;;;;0.28;0.20;;;18.50;63.50;20.70;93278.00;;;;10538731;27;45356;-59
2022/09/15 16:35:27;;;;;;;0.40;0.17;;;18.60;63.30;20.70;93277.00;;;;10525672;27;45818;-59
2022/09/15 16:40:50;;;;;;;6.72;0.45;;;18.60;63.40;20.70;93291.00;;;;10514396;27;45229;-60
2022/09/15 16:46:13;;;;;;;0.63;0.20;;;18.60;63.30;20.70;93291.00;;;;10518686;27;45165;-59
2022/09/15 16:51:34;;;;;;;0.88;0.25;;;18.50;63.30;20.70;93291.00;;;;10515610;27;45555;-59
2022/09/15 16:56:54;;;;;;;0.20;0.20;;;18.60;63.30;20.70;93302.00;;;;10516341;27;46116;-61
2022/09/15 17:02:17;;;;;;;0.40;0.20;;;18.50;63.30;20.70;93302.00;;;;10552385;27;45258;-58
2022/09/15 17:07:38;;;;;;;0.45;0.20;;;18.50;63.40;20.60;93286.00;;;;10553537;27;45866;-58
2022/09/15 17:12:59;;;;;;;0.85;0.30;;;18.50;63.40;20.70;93301.00;;;;10557192;27;45793;-58
2022/09/15 17:18:21;;;;;;;0.65;0.30;;;18.50;63.40;20.60;93290.00;;;;10555984;27;45125;-61
2022/09/15 17:23:46;;;;;;;0.80;0.30;;;18.50;63.40;20.60;93295.00;;;;10557175;27;45282;-60
2022/09/15 17:29:07;;;;;;;0.30;0.30;;;18.50;63.40;20.60;93289.00;;;;10511596;27;45961;-59
2022/09/15 17:34:28;;;;;;;0.63;0.20;;;18.50;63.40;20.60;93312.00;;;;10522160;27;45097;-60
2022/09/15 17:39:49;;;;;;;0.60;0.20;;;18.50;64.20;20.60;93313.00;;;;10513400;27;45153;-59
2022/09/15 17:45:18;;;;;;;0.77;0.30;;;18.50;63.30;20.60;93294.00;;;;10513324;27;45211;-60
2022/09/15 17:50:41;;;;;;;0.22;0.10;;;18.50;63.40;20.60;93313.00;;;;10511011;27;45188;-60
2022/09/15 17:56:02;;;;;;;0.10;0.10;;;18.50;63.40;20.60;93310.00;;;;10510445;27;45235;-61
2022/09/15 18:01:23;;;;;;;0.10;0.10;;;18.50;63.40;20.60;93308.00;;;;10538405;27;45199;-61
2022/09/15 18:06:45;;;;;;;0.38;0.15;;;18.50;63.40;20.60;93323.00;;;;10521567;27;45269;-59
2022/09/15 18:12:05;;;;;;;0.40;0.20;;;18.50;63.30;20.60;93317.00;;;;10519841;27;45159;-60
2022/09/15 18:17:26;;;;;;;0.68;0.28;;;18.50;63.40;20.60;93308.00;;;;10523230;27;45116;-60
2022/09/15 18:22:49;;;;;;;0.20;0.13;;;18.50;63.30;20.60;93307.00;;;;10542957;27;45792;-60
2022/09/15 18:28:10;;;;;;;0.40;0.20;;;18.50;63.30;20.60;93328.00;;;;10553695;27;45177;-59
2022/09/15 18:33:31;;;;;;;0.10;0.10;;;18.50;63.30;20.60;93328.00;;;;10543907;27;45229;-60
2022/09/15 18:38:53;;;;;;;0.10;0.10;;;18.50;63.30;20.60;93325.00;;;;10534221;27;45963;-59
2022/09/15 18:44:14;;;;;;;0.75;0.15;;;18.50;63.20;20.60;93352.00;;;;10511583;27;45313;-60
2022/09/15 18:49:34;;;;;;;0.20;0.20;;;18.50;63.20;20.60;93346.00;;;;10511097;27;45249;-60
2022/09/15 18:54:57;;;;;;;0.20;0.20;;;18.50;63.30;20.60;93350.00;;;;10510412;27;45245;-60
2022/09/15 19:00:21;;;;;;;0.32;0.13;;;18.50;63.40;20.60;93364.00;;;;10511136;27;45092;-60
2022/09/15 19:05:44;;;;;;;0.20;0.20;;;18.50;63.30;20.60;93354.00;;;;10511150;27;45213;-59
2022/09/15 19:11:07;;;;;;;0.22;0.20;;;18.50;63.20;20.60;93341.00;;;;10511789;27;45147;-59
2022/09/15 19:16:28;;;;;;;0.10;0.10;;;18.40;63.30;20.60;93361.00;;;;10541715;27;45219;-60
2022/09/15 19:21:49;;;;;;;0.45;0.20;;;18.50;63.20;20.60;93377.00;;;;10551895;27;45894;-59
2022/09/15 19:27:10;;;;;;;0.10;0.10;;;18.50;63.20;20.60;93375.00;;;;10551562;27;45221;-60
2022/09/15 19:32:32;;;;;;;0.20;0.10;;;18.50;63.20;20.60;93372.00;;;;10550152;27;45380;-59
2022/09/15 19:37:53;;;;;;;0.17;0.10;;;18.40;63.30;20.60;93368.00;;;;10529693;27;45085;-60
2022/09/15 19:43:15;;;;;;;0.93;0.10;;;18.50;63.10;20.60;93381.00;;;;10509848;27;45294;-60
2022/09/15 19:48:36;;;;;;;0.05;0.00;;;18.40;63.10;20.60;93379.00;;;;10509139;27;45279;-59
2022/09/15 19:53:56;;;;;;;0.70;0.10;;;18.40;63.10;20.60;93380.00;;;;10509195;27;45253;-61
2022/09/15 19:59:19;;;;;;;0.10;0.10;;;18.50;64.00;20.60;93380.00;;;;10509880;27;45396;-60
2022/09/15 20:04:40;;;;;;;0.65;0.20;;;18.40;63.10;20.60;93381.00;;;;10520875;27;45169;-60
2022/09/15 20:10:01;;;;;;;0.20;0.20;;;18.40;63.10;20.50;93381.00;;;;10514527;27;45271;-60
2022/09/15 20:15:23;;;;;;;0.30;0.20;;;18.40;63.10;20.60;93376.00;;;;10536039;27;45866;-60
2022/09/15 20:20:43;;;;;;;0.25;0.22;;;18.40;63.10;20.60;93390.00;;;;10517744;27;45851;-60
2022/09/15 20:26:08;;;;;;;1.20;0.20;;;18.40;63.00;20.50;93378.00;;;;10534512;27;45227;-59
2022/09/15 20:31:32;;;;;;;0.30;0.20;;;18.40;63.00;20.50;93390.00;;;;10558786;27;45158;-60
2022/09/15 20:36:52;;;;;;;0.30;0.20;;;18.40;63.00;20.50;93385.00;;;;10518955;27;45206;-62
2022/09/15 20:42:13;;;;;;;0.30;0.20;;;18.40;63.00;20.50;93389.00;;;;10516019;27;45199;-59
2022/09/15 20:47:35;;;;;;;1.17;0.40;;;18.40;63.10;20.50;93390.00;;;;10515225;27;45355;-58
2022/09/15 20:52:55;;;;;;;0.55;0.30;;;18.40;63.00;20.50;93408.00;;;;10515585;27;45282;-60
2022/09/15 20:58:15;;;;;;;0.20;0.20;;;18.40;62.90;20.50;93424.00;;;;10515473;27;45811;-60
2022/09/15 21:03:40;;;;;;;0.30;0.30;;;18.40;62.90;20.50;93404.00;;;;10515016;27;45288;-59
2022/09/15 21:09:01;;;;;;;0.60;0.20;;;18.40;62.90;20.50;93414.00;;;;10514913;27;45751;-59
2022/09/15 21:14:21;;;;;;;0.25;0.20;;;18.40;62.90;20.50;93421.00;;;;10531123;27;45130;-57
2022/09/15 21:19:44;;;;;;;1.55;0.25;;;18.40;62.90;20.50;93424.00;;;;10512516;27;45250;-60
2022/09/15 21:25:06;;;;;;;0.30;0.30;;;18.40;62.80;20.50;93441.00;;;;10523883;27;45166;-60
2022/09/15 21:30:26;;;;;;;0.28;0.20;;;18.40;62.90;20.50;93432.00;;;;10556176;27;45204;-59
2022/09/15 21:35:48;;;;;;;0.20;0.20;;;18.40;62.80;20.50;93443.00;;;;10526216;27;45253;-59
2022/09/15 21:41:12;;;;;;;0.40;0.20;;;18.40;62.80;20.50;93437.00;;;;10513729;27;45186;-59
2022/09/15 21:46:33;;;;;;;0.20;0.20;;;18.40;62.80;20.50;93442.00;;;;10513785;27;45598;-59
2022/09/15 21:51:55;;;;;;;0.50;0.30;;;18.40;62.70;20.50;93445.00;;;;10513907;27;45249;-59
2022/09/15 21:57:15;;;;;;;0.45;0.30;;;18.40;62.70;20.50;93430.00;;;;10512613;27;45158;-59
2022/09/15 22:02:36;;;;;;;0.15;0.15;;;18.40;62.70;20.50;93432.00;;;;10513514;27;45201;-59
2022/09/15 22:07:58;;;;;;;0.28;0.10;;;18.40;62.60;20.50;93443.00;;;;10513138;27;45980;-59
2022/09/15 22:13:19;;;;;;;0.65;0.40;;;18.40;62.70;20.50;93428.00;;;;10518438;27;45104;-59
2022/09/15 22:18:41;;;;;;;0.40;0.40;;;18.40;62.60;20.50;93442.00;;;;10548109;27;45214;-60
2022/09/15 22:24:05;;;;;;;0.32;0.30;;;18.40;62.60;20.50;93440.00;;;;10554800;27;45212;-60
2022/09/15 22:29:26;;;;;;;1.95;0.30;;;18.40;62.50;20.50;93448.00;;;;10511311;27;45788;-60
2022/09/15 22:34:47;;;;;;;1.23;0.30;;;18.40;62.50;20.50;93457.00;;;;10523854;27;45877;-60
2022/09/15 22:40:10;;;;;;;0.85;0.40;;;18.40;62.40;20.50;93455.00;;;;10512561;27;45209;-61
2022/09/15 22:45:31;;;;;;;0.10;0.10;;;18.40;62.50;20.50;93461.00;;;;10541546;27;45134;-60
2022/09/15 22:50:52;;;;;;;4.32;0.43;;;18.40;62.40;20.50;93453.00;;;;10554383;27;45853;-60
2022/09/15 22:56:18;;;;;;;0.40;0.20;;;18.40;62.30;20.50;93455.00;;;;10554191;27;45515;-57
2022/09/15 23:01:39;;;;;;;0.82;0.35;;;18.30;62.30;20.50;93440.00;;;;10555363;27;45109;-60
2022/09/15 23:06:59;;;;;;;0.30;0.22;;;18.40;62.30;20.50;93442.00;;;;10553405;27;45224;-60
2022/09/15 23:12:21;;;;;;;0.77;0.30;;;18.40;62.20;20.50;93446.00;;;;10553883;27;45257;-60
2022/09/15 23:17:41;;;;;;;1.73;0.65;;;18.40;62.20;20.50;93435.00;;;;10536405;27;45857;-62
2022/09/15 23:23:02;;;;;;;0.47;0.30;;;18.40;62.10;20.40;93425.00;;;;10511432;27;45157;-59
2022/09/15 23:28:24;;;;;;;0.40;0.40;;;18.30;62.00;20.50;93433.00;;;;10547918;27;45288;-59
2022/09/15 23:33:45;;;;;;;0.50;0.20;;;18.30;62.00;20.40;93439.00;;;;10540211;27;45373;-61
2022/09/15 23:39:06;;;;;;;0.50;0.30;;;18.30;62.00;20.50;93442.00;;;;10510043;27;45382;-60
2022/09/15 23:44:27;;;;;;;1.08;0.40;;;18.40;62.00;20.50;93432.00;;;;10518033;27;45696;-59
2022/09/15 23:49:48;;;;;;;1.40;0.50;;;18.30;61.90;20.40;93426.00;;;;10520921;27;45236;-59
2022/09/15 23:55:10;;;;;;;0.57;0.45;;;18.30;61.90;20.40;93441.00;;;;10559373;27;45202;-60
